Time,TemperatureF,DewpointF,PressureIn,WindDirection,WindDirectionDegrees,WindSpeedMPH,WindSpeedGustMPH,Humidity,HourlyPrecipIn,Conditions,Clouds,dailyrainin,SolarRadiationWatts/m^2,SoftwareType,DateUTC
2013-09-28 00:02:00,66.0,64.6,30.03,NNE,21,0.0,0.0,95,0.00,,,0.00,0.0,meteohub,2013-09-28 04:02:00,
2013-09-28 00:03:00,66.0,64.6,30.03,NNE,21,0.0,0.0,95,0.00,,,0.00,0.0,meteohub,2013-09-28 04:03:00,
2013-09-28 00:07:00,66.0,64.6,30.03,NNE,21,0.0,0.0,95,0.00,,,0.00,0.0,meteohub,2013-09-28 04:07:00,
2013-09-28 00:12:00,66.0,64.6,30.04,NNE,21,0.0,0.0,95,0.00,,,0.00,0.0,meteohub,2013-09-28 04:12:00,
2013-09-28 00:15:00,66.0,64.6,30.03,NNE,21,0.0,0.0,95,0.00,,,0.00,0.0,meteohub,2013-09-28 04:15:00,
2013-09-28 00:18:00,66.0,64.6,30.03,NNE,21,0.0,0.0,95,0.00,,,0.00,0.0,meteohub,2013-09-28 04:18:00,
2013-09-28 00:24:00,66.0,64.6,30.03,NNE,21,0.0,0.0,95,0.00,,,0.00,0.0,meteohub,2013-09-28 04:24:00,
2013-09-28 00:30:00,66.0,64.6,30.03,NNE,21,0.0,0.0,95,0.00,,,0.00,0.0,meteohub,2013-09-28 04:30:00,
2013-09-28 00:37:00,65.8,64.4,30.03,NNE,21,0.0,0.0,95,0.00,,,0.00,0.0,meteohub,2013-09-28 04:37:00,
2013-09-28 00:43:00,65.8,64.4,30.03,NNE,21,0.0,0.0,95,0.00,,,0.00,0.0,meteohub,2013-09-28 04:43:00,
2013-09-28 00:49:00,66.0,64.6,30.03,North,355,0.0,0.0,95,0.00,,,0.00,0.0,meteohub,2013-09-28 04:49:00,
2013-09-28 00:55:00,66.0,64.6,30.03,North,355,0.0,2.0,95,0.00,,,0.00,0.0,meteohub,2013-09-28 04:55:00,
2013-09-28 01:01:00,66.0,64.6,30.03,North,355,0.0,2.0,95,0.00,,,0.00,0.0,meteohub,2013-09-28 05:01:00,
2013-09-28 01:07:00,66.0,64.6,30.03,NNE,26,0.0,2.0,95,0.00,,,0.00,0.0,meteohub,2013-09-28 05:07:00,
2013-09-28 01:12:00,66.0,64.6,30.03,NNE,26,0.0,2.0,95,0.00,,,0.00,0.0,meteohub,2013-09-28 05:12:00,
2013-09-28 01:17:00,66.0,64.6,30.03,NNE,32,1.0,2.0,95,0.00,,,0.00,0.0,meteohub,2013-09-28 05:17:00,
2013-09-28 01:22:00,66.0,64.6,30.02,NNE,32,0.0,3.0,95,0.00,,,0.00,0.0,meteohub,2013-09-28 05:22:00,
2013-09-28 01:27:00,66.0,64.6,30.02,NE,50,0.0,3.0,95,0.00,,,0.00,0.0,meteohub,2013-09-28 05:27:00,
2013-09-28 01:32:00,66.0,64.6,30.02,NE,50,0.0,3.0,95,0.00,,,0.00,0.0,meteohub,2013-09-28 05:32:00,
2013-09-28 01:38:00,66.0,64.6,30.02,NNE,28,0.0,3.0,95,0.00,,,0.00,0.0,meteohub,2013-09-28 05:38:00,
2013-09-28 01:44:00,66.0,64.6,30.02,NNW,335,1.0,3.0,95,0.00,,,0.00,0.0,meteohub,2013-09-28 05:44:00,
2013-09-28 01:51:00,66.0,64.6,30.02,NNW,333,1.0,3.0,95,0.00,,,0.00,0.0,meteohub,2013-09-28 05:51:00,
2013-09-28 01:57:00,66.2,64.8,30.02,North,0,0.0,3.0,95,0.00,,,0.00,0.0,meteohub,2013-09-28 05:57:00,
2013-09-28 02:02:00,66.2,64.8,30.02,North,0,1.0,2.0,95,0.00,,,0.00,0.0,meteohub,2013-09-28 06:02:00,
2013-09-28 02:07:00,66.2,64.8,30.02,NW,325,0.0,2.0,95,0.00,,,0.00,0.0,meteohub,2013-09-28 06:07:00,
2013-09-28 02:12:00,66.2,64.8,30.02,NE,53,1.0,2.0,95,0.00,,,0.00,0.0,meteohub,2013-09-28 06:12:00,
2013-09-28 02:18:00,66.2,64.8,30.01,North,5,1.0,3.0,95,0.00,,,0.00,0.0,meteohub,2013-09-28 06:18:00,
2013-09-28 02:25:00,66.2,64.8,30.01,NNE,15,2.0,3.0,95,0.00,,,0.00,0.0,meteohub,2013-09-28 06:25:00,
2013-09-28 02:31:00,66.2,64.8,30.01,NNE,15,0.0,4.0,95,0.00,,,0.00,0.0,meteohub,2013-09-28 06:31:00,
2013-09-28 02:37:00,66.0,64.6,30.01,North,0,0.0,4.0,95,0.00,,,0.00,0.0,meteohub,2013-09-28 06:37:00,
2013-09-28 02:42:00,66.0,64.6,30.01,North,5,0.0,3.0,95,0.00,,,0.00,0.0,meteohub,2013-09-28 06:42:00,
2013-09-28 02:49:00,65.8,64.4,30.01,North,0,0.0,3.0,95,0.00,,,0.00,0.0,meteohub,2013-09-28 06:49:00,
2013-09-28 02:55:00,65.8,64.4,30.01,North,0,0.0,3.0,95,0.00,,,0.00,0.0,meteohub,2013-09-28 06:55:00,
2013-09-28 03:02:00,65.8,64.4,30.01,North,0,0.0,1.0,95,0.00,,,0.00,0.0,meteohub,2013-09-28 07:02:00,
2013-09-28 03:07:00,65.8,64.4,30.01,North,0,0.0,1.0,95,0.00,,,0.00,0.0,meteohub,2013-09-28 07:07:00,
2013-09-28 03:12:00,65.8,64.4,30.01,North,355,1.0,1.0,95,0.00,,,0.00,0.0,meteohub,2013-09-28 07:12:00,
2013-09-28 03:17:00,65.8,64.4,30.01,NNE,27,1.0,3.0,95,0.00,,,0.00,0.0,meteohub,2013-09-28 07:17:00,
2013-09-28 03:22:00,65.8,64.4,30.01,NE,48,2.0,3.0,95,0.00,,,0.00,0.0,meteohub,2013-09-28 07:22:00,
2013-09-28 03:27:00,66.0,64.6,30.01,NW,315,1.0,3.0,95,0.00,,,0.00,0.0,meteohub,2013-09-28 07:27:00,
2013-09-28 03:32:00,66.4,64.6,30.00,NNE,17,2.0,4.0,94,0.00,,,0.00,0.0,meteohub,2013-09-28 07:32:00,
2013-09-28 03:39:00,66.4,64.6,30.00,ENE,76,1.0,4.0,94,0.00,,,0.00,0.0,meteohub,2013-09-28 07:39:00,
2013-09-28 03:45:00,66.6,64.8,30.01,ENE,66,2.0,4.0,94,0.00,,,0.00,0.0,meteohub,2013-09-28 07:45:00,
2013-09-28 03:51:00,66.7,64.6,30.00,NNE,27,0.0,4.0,93,0.00,,,0.00,0.0,meteohub,2013-09-28 07:51:00,
2013-09-28 03:57:00,66.7,64.6,30.00,North,10,1.0,4.0,93,0.00,,,0.00,0.0,meteohub,2013-09-28 07:57:00,
2013-09-28 04:03:00,66.9,64.6,30.01,NNE,26,1.0,6.0,92,0.00,,,0.00,0.0,meteohub,2013-09-28 08:03:00,
2013-09-28 04:10:00,67.1,64.8,30.01,NE,34,2.0,6.0,92,0.00,,,0.00,0.0,meteohub,2013-09-28 08:10:00,
2013-09-28 04:16:00,67.3,64.9,30.00,NNE,26,1.0,5.0,92,0.00,,,0.00,0.0,meteohub,2013-09-28 08:16:00,
2013-09-28 04:22:00,67.3,64.6,30.01,NNE,25,1.0,5.0,91,0.00,,,0.00,0.0,meteohub,2013-09-28 08:22:00,
2013-09-28 04:27:00,67.3,64.2,30.01,NNE,30,3.0,5.0,90,0.00,,,0.00,0.0,meteohub,2013-09-28 08:27:00,
2013-09-28 04:34:00,67.5,64.4,30.01,NNE,13,2.0,6.0,90,0.00,,,0.00,0.0,meteohub,2013-09-28 08:34:00,
2013-09-28 04:40:00,67.5,64.4,30.01,NW,319,0.0,6.0,90,0.00,,,0.00,0.0,meteohub,2013-09-28 08:40:00,
2013-09-28 04:47:00,67.3,64.2,30.01,East,85,2.0,9.0,90,0.00,,,0.00,0.0,meteohub,2013-09-28 08:47:00,
2013-09-28 04:52:00,67.3,64.2,30.01,NE,42,3.0,9.0,90,0.00,,,0.00,0.0,meteohub,2013-09-28 08:52:00,
2013-09-28 04:59:00,67.3,63.9,30.01,NNE,17,4.0,6.0,89,0.00,,,0.00,0.0,meteohub,2013-09-28 08:59:00,
2013-09-28 05:05:00,67.3,63.9,30.01,NNE,24,0.0,6.0,89,0.00,,,0.00,0.0,meteohub,2013-09-28 09:05:00,
2013-09-28 05:11:00,67.1,63.7,30.01,NNE,25,2.0,6.0,89,0.00,,,0.00,0.0,meteohub,2013-09-28 09:11:00,
2013-09-28 05:17:00,66.9,63.5,30.01,NE,51,1.0,6.0,89,0.00,,,0.00,0.0,meteohub,2013-09-28 09:17:00,
2013-09-28 05:24:00,66.9,63.5,30.01,North,355,2.0,7.0,89,0.00,,,0.00,0.0,meteohub,2013-09-28 09:24:00,
2013-09-28 05:30:00,66.9,63.5,30.02,ENE,57,2.0,7.0,89,0.00,,,0.00,0.0,meteohub,2013-09-28 09:30:00,
2013-09-28 05:36:00,66.9,63.3,30.02,North,0,2.0,7.0,88,0.00,,,0.00,0.0,meteohub,2013-09-28 09:36:00,
2013-09-28 05:42:00,66.9,63.3,30.02,NE,43,1.0,6.0,88,0.00,,,0.00,0.0,meteohub,2013-09-28 09:42:00,
2013-09-28 05:49:00,66.7,63.1,30.03,ENE,65,1.0,6.0,88,0.00,,,0.00,0.0,meteohub,2013-09-28 09:49:00,
2013-09-28 05:55:00,66.7,63.1,30.03,North,349,1.0,6.0,88,0.00,,,0.00,0.0,meteohub,2013-09-28 09:55:00,
2013-09-28 06:01:00,66.6,63.0,30.03,North,350,0.0,6.0,88,0.00,,,0.00,0.0,meteohub,2013-09-28 10:01:00,
2013-09-28 06:07:00,66.6,63.1,30.03,WNW,295,0.0,6.0,89,0.00,,,0.00,0.0,meteohub,2013-09-28 10:07:00,
2013-09-28 06:12:00,66.6,63.0,30.03,North,355,0.0,5.0,88,0.00,,,0.00,0.0,meteohub,2013-09-28 10:12:00,
2013-09-28 06:17:00,66.4,62.8,30.04,NNE,24,2.0,5.0,88,0.00,,,0.00,0.0,meteohub,2013-09-28 10:17:00,
2013-09-28 06:22:00,66.4,62.8,30.04,NNE,26,1.0,5.0,88,0.00,,,0.00,0.0,meteohub,2013-09-28 10:22:00,
2013-09-28 06:27:00,66.4,62.8,30.04,North,5,1.0,5.0,88,0.00,,,0.00,0.0,meteohub,2013-09-28 10:27:00,
2013-09-28 06:32:00,66.0,62.6,30.04,NNE,25,0.0,5.0,89,0.00,,,0.00,0.0,meteohub,2013-09-28 10:32:00,
2013-09-28 06:37:00,66.0,62.4,30.04,NNE,22,0.0,5.0,88,0.00,,,0.00,0.0,meteohub,2013-09-28 10:37:00,
2013-09-28 06:42:00,65.8,62.2,30.04,NNE,28,2.0,5.0,88,0.00,,,0.00,0.0,meteohub,2013-09-28 10:42:00,
2013-09-28 06:47:00,65.8,62.2,30.04,NNE,19,1.0,5.0,88,0.00,,,0.00,0.0,meteohub,2013-09-28 10:47:00,
2013-09-28 06:52:00,65.7,62.2,30.05,NNW,330,1.0,5.0,89,0.00,,,0.00,0.0,meteohub,2013-09-28 10:52:00,
2013-09-28 06:57:00,65.7,62.1,30.05,NNE,30,0.0,5.0,88,0.00,,,0.00,0.0,meteohub,2013-09-28 10:57:00,
2013-09-28 07:02:00,65.7,62.1,30.05,NNE,15,1.0,5.0,88,0.00,,,0.00,0.0,meteohub,2013-09-28 11:02:00,
2013-09-28 07:07:00,65.5,61.5,30.05,NNE,20,1.0,4.0,87,0.00,,,0.00,0.0,meteohub,2013-09-28 11:07:00,
2013-09-28 07:12:00,65.5,61.5,30.05,NNE,19,2.0,4.0,87,0.00,,,0.00,0.0,meteohub,2013-09-28 11:12:00,
2013-09-28 07:17:00,65.3,61.7,30.05,NNE,13,1.0,4.0,88,0.00,,,0.00,0.0,meteohub,2013-09-28 11:17:00,
2013-09-28 07:22:00,65.1,61.5,30.05,NNE,26,1.0,4.0,88,0.00,,,0.00,0.0,meteohub,2013-09-28 11:22:00,
2013-09-28 07:27:00,64.9,61.3,30.05,NNE,27,0.0,4.0,88,0.00,,,0.00,5.0,meteohub,2013-09-28 11:27:00,
2013-09-28 07:32:00,64.8,61.2,30.05,NE,50,1.0,4.0,88,0.00,,,0.00,7.0,meteohub,2013-09-28 11:32:00,
2013-09-28 07:37:00,64.6,61.0,30.06,NNE,17,1.0,4.0,88,0.00,,,0.00,9.0,meteohub,2013-09-28 11:37:00,
2013-09-28 07:42:00,64.4,60.8,30.06,NNE,26,0.0,4.0,88,0.00,,,0.00,11.0,meteohub,2013-09-28 11:42:00,
2013-09-28 07:47:00,64.2,60.6,30.06,NE,36,0.0,3.0,88,0.00,,,0.00,16.0,meteohub,2013-09-28 11:47:00,
2013-09-28 07:52:00,64.0,60.8,30.06,West,259,0.0,3.0,89,0.00,,,0.00,18.0,meteohub,2013-09-28 11:52:00,
2013-09-28 07:59:00,63.9,60.6,30.06,NNE,15,0.0,3.0,89,0.00,,,0.00,23.0,meteohub,2013-09-28 11:59:00,
2013-09-28 08:05:00,63.9,60.6,30.06,NE,34,1.0,3.0,89,0.00,,,0.00,26.0,meteohub,2013-09-28 12:05:00,
2013-09-28 08:11:00,63.9,60.6,30.07,NNW,340,1.0,3.0,89,0.00,,,0.00,30.0,meteohub,2013-09-28 12:11:00,
2013-09-28 08:17:00,63.9,60.8,30.07,NNE,22,2.0,3.0,90,0.00,,,0.00,46.0,meteohub,2013-09-28 12:17:00,
2013-09-28 08:22:00,64.0,60.8,30.07,ENE,67,3.0,3.0,89,0.00,,,0.00,63.0,meteohub,2013-09-28 12:22:00,
2013-09-28 08:27:00,64.2,61.0,30.07,NE,45,0.0,3.0,89,0.00,,,0.00,76.0,meteohub,2013-09-28 12:27:00,
2013-09-28 08:32:00,64.2,61.0,30.08,NNE,22,2.0,3.0,89,0.00,,,0.00,86.0,meteohub,2013-09-28 12:32:00,
2013-09-28 08:39:00,64.6,61.0,30.08,NNE,27,1.0,5.0,88,0.00,,,0.00,98.0,meteohub,2013-09-28 12:39:00,
2013-09-28 08:45:00,64.8,61.2,30.08,North,5,1.0,5.0,88,0.00,,,0.00,104.0,meteohub,2013-09-28 12:45:00,
2013-09-28 08:51:00,64.9,61.0,30.08,ENE,67,1.0,5.0,87,0.00,,,0.00,114.0,meteohub,2013-09-28 12:51:00,
2013-09-28 08:57:00,65.1,61.2,30.08,NE,49,2.0,6.0,87,0.00,,,0.00,127.0,meteohub,2013-09-28 12:57:00,
2013-09-28 09:02:00,65.5,61.5,30.08,ENE,59,0.0,6.0,87,0.00,,,0.00,146.0,meteohub,2013-09-28 13:02:00,
2013-09-28 09:07:00,65.7,61.7,30.09,NNE,24,3.0,6.0,87,0.00,,,0.00,169.0,meteohub,2013-09-28 13:07:00,
2013-09-28 09:12:00,66.0,61.3,30.09,NNE,32,1.0,6.0,85,0.00,,,0.00,185.0,meteohub,2013-09-28 13:12:00,
2013-09-28 09:17:00,66.4,61.3,30.09,SSW,192,1.0,6.0,84,0.00,,,0.00,192.0,meteohub,2013-09-28 13:17:00,
2013-09-28 09:22:00,66.7,61.3,30.09,ENE,73,1.0,7.0,83,0.00,,,0.00,202.0,meteohub,2013-09-28 13:22:00,
2013-09-28 09:27:00,67.1,62.1,30.09,NNE,24,3.0,7.0,84,0.00,,,0.00,211.0,meteohub,2013-09-28 13:27:00,
2013-09-28 09:32:00,67.5,61.7,30.09,NE,51,4.0,7.0,82,0.00,,,0.00,213.0,meteohub,2013-09-28 13:32:00,
2013-09-28 09:37:00,67.5,61.7,30.09,NNE,12,4.0,7.0,82,0.00,,,0.00,213.0,meteohub,2013-09-28 13:37:00,
2013-09-28 09:42:00,67.6,61.5,30.09,ENE,71,2.0,6.0,81,0.00,,,0.00,216.0,meteohub,2013-09-28 13:42:00,
2013-09-28 09:47:00,68.0,61.5,30.09,NNE,22,1.0,6.0,80,0.00,,,0.00,190.0,meteohub,2013-09-28 13:47:00,
2013-09-28 09:53:00,68.2,61.3,30.10,NE,38,2.0,6.0,79,0.00,,,0.00,134.0,meteohub,2013-09-28 13:53:00,
2013-09-28 09:59:00,68.7,61.5,30.10,WNW,292,1.0,6.0,78,0.00,,,0.00,148.0,meteohub,2013-09-28 13:59:00,
2013-09-28 10:05:00,69.4,62.2,30.10,NE,39,2.0,8.0,78,0.00,,,0.00,114.0,meteohub,2013-09-28 14:05:00,
2013-09-28 10:12:00,70.0,62.4,30.10,East,82,5.0,8.0,77,0.00,,,0.00,158.0,meteohub,2013-09-28 14:12:00,
2013-09-28 10:18:00,70.5,61.5,30.11,NE,39,2.0,8.0,73,0.00,,,0.00,169.0,meteohub,2013-09-28 14:18:00,
2013-09-28 10:24:00,71.2,61.3,30.11,NE,51,2.0,8.0,71,0.00,,,0.00,213.0,meteohub,2013-09-28 14:24:00,
2013-09-28 10:30:00,71.8,61.0,30.11,NNE,19,6.0,6.0,69,0.00,,,0.00,592.0,meteohub,2013-09-28 14:30:00,
2013-09-28 10:36:00,72.1,59.7,30.11,ENE,68,2.0,6.0,65,0.00,,,0.00,626.0,meteohub,2013-09-28 14:36:00,
2013-09-28 10:42:00,72.1,59.7,30.10,NE,43,0.0,6.0,65,0.00,,,0.00,652.0,meteohub,2013-09-28 14:42:00,
2013-09-28 10:49:00,72.9,60.4,30.10,ENE,58,5.0,11.0,65,0.00,,,0.00,749.0,meteohub,2013-09-28 14:49:00,
2013-09-28 10:55:00,72.7,58.5,30.11,ENE,61,4.0,11.0,61,0.00,,,0.00,285.0,meteohub,2013-09-28 14:55:00,
2013-09-28 11:01:00,72.3,58.1,30.11,NNW,333,3.0,11.0,61,0.00,,,0.00,434.0,meteohub,2013-09-28 15:01:00,
2013-09-28 11:07:00,72.7,58.8,30.11,NE,49,1.0,11.0,62,0.00,,,0.00,473.0,meteohub,2013-09-28 15:07:00,
2013-09-28 11:12:00,72.9,58.6,30.11,ENE,68,3.0,9.0,61,0.00,,,0.00,519.0,meteohub,2013-09-28 15:12:00,
2013-09-28 11:20:00,73.0,58.3,30.11,NE,37,5.0,9.0,60,0.00,,,0.00,403.0,meteohub,2013-09-28 15:20:00,
2013-09-28 11:26:00,73.0,58.3,30.10,NE,42,2.0,9.0,60,0.00,,,0.00,510.0,meteohub,2013-09-28 15:26:00,
2013-09-28 11:32:00,74.5,59.7,30.10,West,268,4.0,9.0,60,0.00,,,0.00,598.0,meteohub,2013-09-28 15:32:00,
2013-09-28 11:38:00,74.3,59.0,30.11,NW,323,3.0,6.0,59,0.00,,,0.00,429.0,meteohub,2013-09-28 15:38:00,
2013-09-28 11:44:00,73.9,59.7,30.11,ENE,73,3.0,6.0,61,0.00,,,0.00,404.0,meteohub,2013-09-28 15:44:00,
2013-09-28 11:51:00,75.0,60.3,30.11,NE,40,4.0,6.0,60,0.00,,,0.00,547.0,meteohub,2013-09-28 15:51:00,
2013-09-28 11:57:00,74.8,60.1,30.11,West,272,2.0,6.0,60,0.00,,,0.00,452.0,meteohub,2013-09-28 15:57:00,
2013-09-28 12:03:00,75.4,58.6,30.11,NNW,348,2.0,6.0,56,0.00,,,0.00,452.0,meteohub,2013-09-28 16:03:00,
2013-09-28 12:09:00,76.6,59.7,30.10,ENE,63,3.0,6.0,56,0.00,,,0.00,868.0,meteohub,2013-09-28 16:09:00,
2013-09-28 12:15:00,76.6,58.3,30.10,WNW,283,1.0,6.0,53,0.00,,,0.00,824.0,meteohub,2013-09-28 16:15:00,
2013-09-28 12:21:00,77.2,59.7,30.10,ENE,62,1.0,10.0,55,0.00,,,0.00,821.0,meteohub,2013-09-28 16:21:00,
2013-09-28 12:27:00,77.2,58.3,30.10,NE,42,2.0,10.0,52,0.00,,,0.00,823.0,meteohub,2013-09-28 16:27:00,
2013-09-28 12:32:00,77.5,60.6,30.10,ENE,57,10.0,10.0,56,0.00,,,0.00,830.0,meteohub,2013-09-28 16:32:00,
2013-09-28 12:37:00,76.8,59.0,30.09,NE,42,1.0,10.0,54,0.00,,,0.00,831.0,meteohub,2013-09-28 16:37:00,
2013-09-28 12:42:00,77.7,59.7,30.09,NE,40,2.0,10.0,54,0.00,,,0.00,837.0,meteohub,2013-09-28 16:42:00,
2013-09-28 12:47:00,77.9,59.4,30.09,NNE,32,2.0,10.0,53,0.00,,,0.00,837.0,meteohub,2013-09-28 16:47:00,
2013-09-28 12:52:00,77.5,59.5,30.09,NE,56,3.0,10.0,54,0.00,,,0.00,842.0,meteohub,2013-09-28 16:52:00,
2013-09-28 12:57:00,77.7,59.2,30.09,East,89,2.0,6.0,53,0.00,,,0.00,842.0,meteohub,2013-09-28 16:57:00,
2013-09-28 13:02:00,78.4,60.4,30.09,NE,36,2.0,6.0,54,0.00,,,0.00,844.0,meteohub,2013-09-28 17:02:00,
2013-09-28 13:07:00,78.6,59.5,30.09,NE,48,3.0,6.0,52,0.00,,,0.00,847.0,meteohub,2013-09-28 17:07:00,
2013-09-28 13:12:00,78.1,60.1,30.08,NNW,328,2.0,5.0,54,0.00,,,0.00,846.0,meteohub,2013-09-28 17:12:00,
2013-09-28 13:17:00,79.0,61.5,30.09,NNE,29,2.0,5.0,55,0.00,,,0.00,849.0,meteohub,2013-09-28 17:17:00,
2013-09-28 13:22:00,79.0,60.4,30.08,ESE,115,3.0,6.0,53,0.00,,,0.00,847.0,meteohub,2013-09-28 17:22:00,
2013-09-28 13:27:00,79.2,61.2,30.08,NE,51,3.0,6.0,54,0.00,,,0.00,846.0,meteohub,2013-09-28 17:27:00,
2013-09-28 13:32:00,78.8,60.3,30.08,NE,49,1.0,6.0,53,0.00,,,0.00,847.0,meteohub,2013-09-28 17:32:00,
2013-09-28 13:39:00,79.3,61.2,30.08,East,85,3.0,7.0,54,0.00,,,0.00,842.0,meteohub,2013-09-28 17:39:00,
2013-09-28 13:45:00,79.5,60.8,30.07,NNE,31,1.0,7.0,53,0.00,,,0.00,842.0,meteohub,2013-09-28 17:45:00,
2013-09-28 13:51:00,79.9,62.2,30.07,East,82,1.0,5.0,55,0.00,,,0.00,838.0,meteohub,2013-09-28 17:51:00,
2013-09-28 13:57:00,79.3,62.2,30.06,NE,36,2.0,5.0,56,0.00,,,0.00,837.0,meteohub,2013-09-28 17:57:00,
2013-09-28 14:03:00,79.9,59.5,30.06,WSW,249,2.0,6.0,50,0.00,,,0.00,830.0,meteohub,2013-09-28 18:03:00,
2013-09-28 14:10:00,80.2,62.1,30.06,NNE,18,3.0,6.0,54,0.00,,,0.00,824.0,meteohub,2013-09-28 18:10:00,
2013-09-28 14:16:00,80.8,62.6,30.06,WNW,284,2.0,7.0,54,0.00,,,0.00,821.0,meteohub,2013-09-28 18:16:00,
2013-09-28 14:22:00,80.8,63.1,30.06,NNE,21,2.0,7.0,55,0.00,,,0.00,816.0,meteohub,2013-09-28 18:22:00,
2013-09-28 14:28:00,80.2,62.6,30.06,NNE,23,2.0,7.0,55,0.00,,,0.00,805.0,meteohub,2013-09-28 18:28:00,
2013-09-28 14:34:00,80.2,61.0,30.05,East,81,1.0,5.0,52,0.00,,,0.00,800.0,meteohub,2013-09-28 18:34:00,
2013-09-28 14:40:00,80.2,62.1,30.05,NW,314,2.0,5.0,54,0.00,,,0.00,789.0,meteohub,2013-09-28 18:40:00,
2013-09-28 14:47:00,80.4,61.2,30.05,East,88,2.0,7.0,52,0.00,,,0.00,782.0,meteohub,2013-09-28 18:47:00,
2013-09-28 14:52:00,80.1,61.9,30.05,ENE,57,0.0,7.0,54,0.00,,,0.00,773.0,meteohub,2013-09-28 18:52:00,
2013-09-28 14:57:00,79.9,61.2,30.04,SSE,165,1.0,7.0,53,0.00,,,0.00,768.0,meteohub,2013-09-28 18:57:00,
2013-09-28 15:02:00,80.4,61.2,30.04,NW,323,3.0,6.0,52,0.00,,,0.00,756.0,meteohub,2013-09-28 19:02:00,
2013-09-28 15:08:00,81.1,62.4,30.04,NE,44,6.0,6.0,53,0.00,,,0.00,745.0,meteohub,2013-09-28 19:08:00,
2013-09-28 15:15:00,81.1,62.4,30.04,WNW,288,3.0,6.0,53,0.00,,,0.00,731.0,meteohub,2013-09-28 19:15:00,
2013-09-28 15:21:00,80.8,61.0,30.04,NNE,24,3.0,6.0,51,0.00,,,0.00,722.0,meteohub,2013-09-28 19:21:00,
2013-09-28 15:27:00,80.8,62.6,30.04,SSE,159,3.0,6.0,54,0.00,,,0.00,712.0,meteohub,2013-09-28 19:27:00,
2013-09-28 15:32:00,81.0,62.2,30.04,NNE,17,1.0,7.0,53,0.00,,,0.00,707.0,meteohub,2013-09-28 19:32:00,
2013-09-28 15:37:00,80.2,61.5,30.04,NE,39,0.0,7.0,53,0.00,,,0.00,703.0,meteohub,2013-09-28 19:37:00,
2013-09-28 15:42:00,81.1,62.4,30.04,North,5,5.0,7.0,53,0.00,,,0.00,703.0,meteohub,2013-09-28 19:42:00,
2013-09-28 15:47:00,81.0,63.3,30.04,NE,44,2.0,6.0,55,0.00,,,0.00,696.0,meteohub,2013-09-28 19:47:00,
2013-09-28 15:52:00,81.0,61.7,30.04,WNW,289,2.0,6.0,52,0.00,,,0.00,603.0,meteohub,2013-09-28 19:52:00,
2013-09-28 15:57:00,80.2,62.1,30.03,NE,53,4.0,6.0,54,0.00,,,0.00,432.0,meteohub,2013-09-28 19:57:00,
2013-09-28 16:02:00,79.3,62.2,30.03,ENE,65,3.0,6.0,56,0.00,,,0.00,218.0,meteohub,2013-09-28 20:02:00,
2013-09-28 16:07:00,78.6,62.6,30.03,ESE,121,1.0,6.0,58,0.00,,,0.00,288.0,meteohub,2013-09-28 20:07:00,
2013-09-28 16:12:00,79.3,63.7,30.03,South,170,1.0,6.0,59,0.00,,,0.00,79.0,meteohub,2013-09-28 20:12:00,
2013-09-28 16:17:00,79.9,62.8,30.03,West,280,1.0,5.0,56,0.00,,,0.00,292.0,meteohub,2013-09-28 20:17:00,
2013-09-28 16:22:00,79.5,63.0,30.03,NW,305,1.0,5.0,57,0.00,,,0.00,299.0,meteohub,2013-09-28 20:22:00,
2013-09-28 16:29:00,79.3,63.7,30.04,North,5,1.0,5.0,59,0.00,,,0.00,272.0,meteohub,2013-09-28 20:29:00,
2013-09-28 16:35:00,79.2,63.1,30.03,NE,56,3.0,6.0,58,0.00,,,0.00,288.0,meteohub,2013-09-28 20:35:00,
2013-09-28 16:41:00,79.9,65.3,30.03,NE,41,2.0,6.0,61,0.00,,,0.00,415.0,meteohub,2013-09-28 20:41:00,
2013-09-28 16:47:00,80.8,64.6,30.03,NNE,31,2.0,6.0,58,0.00,,,0.00,729.0,meteohub,2013-09-28 20:47:00,
2013-09-28 16:52:00,79.9,66.2,30.03,East,90,2.0,5.0,63,0.00,,,0.00,309.0,meteohub,2013-09-28 20:52:00,
2013-09-28 16:57:00,78.4,65.7,30.03,East,80,2.0,5.0,65,0.00,,,0.00,185.0,meteohub,2013-09-28 20:57:00,
2013-09-28 17:02:00,77.4,66.0,30.03,NNE,26,2.0,7.0,68,0.00,,,0.00,179.0,meteohub,2013-09-28 21:02:00,
2013-09-28 17:07:00,77.2,65.8,30.04,NE,51,0.0,7.0,68,0.00,,,0.00,272.0,meteohub,2013-09-28 21:07:00,
2013-09-28 17:12:00,77.2,65.8,30.04,NE,34,3.0,7.0,68,0.00,,,0.00,218.0,meteohub,2013-09-28 21:12:00,
2013-09-28 17:17:00,76.8,66.2,30.03,ENE,62,2.0,7.0,70,0.00,,,0.00,162.0,meteohub,2013-09-28 21:17:00,
2013-09-28 17:22:00,76.5,66.7,30.04,NE,49,0.0,7.0,72,0.00,,,0.00,135.0,meteohub,2013-09-28 21:22:00,
2013-09-28 17:27:00,75.9,65.8,30.03,NNE,21,2.0,7.0,71,0.00,,,0.00,130.0,meteohub,2013-09-28 21:27:00,
2013-09-28 17:32:00,75.7,65.7,30.03,ENE,71,1.0,7.0,71,0.00,,,0.00,144.0,meteohub,2013-09-28 21:32:00,
2013-09-28 17:37:00,75.7,66.0,30.03,SSW,213,1.0,7.0,72,0.00,,,0.00,127.0,meteohub,2013-09-28 21:37:00,
2013-09-28 17:42:00,75.6,65.5,30.03,NNE,33,5.0,7.0,71,0.00,,,0.00,114.0,meteohub,2013-09-28 21:42:00,
2013-09-28 17:47:00,75.4,65.3,30.03,SE,141,3.0,7.0,71,0.00,,,0.00,98.0,meteohub,2013-09-28 21:47:00,
2013-09-28 17:52:00,75.0,65.3,30.03,NNE,26,1.0,6.0,72,0.00,,,0.00,84.0,meteohub,2013-09-28 21:52:00,
2013-09-28 17:57:00,74.8,65.1,30.03,ENE,59,4.0,6.0,72,0.00,,,0.00,79.0,meteohub,2013-09-28 21:57:00,
2013-09-28 18:02:00,74.8,65.7,30.04,North,355,2.0,7.0,73,0.00,,,0.00,79.0,meteohub,2013-09-28 22:02:00,
2013-09-28 18:07:00,74.7,65.5,30.04,NNE,24,1.0,7.0,73,0.00,,,0.00,74.0,meteohub,2013-09-28 22:07:00,
2013-09-28 18:14:00,74.5,65.7,30.04,NE,50,2.0,7.0,74,0.00,,,0.00,76.0,meteohub,2013-09-28 22:14:00,
2013-09-28 18:20:00,74.1,65.3,30.04,NE,44,0.0,7.0,74,0.00,,,0.00,62.0,meteohub,2013-09-28 22:20:00,
2013-09-28 18:26:00,73.9,65.1,30.04,East,88,1.0,9.0,74,0.00,,,0.00,56.0,meteohub,2013-09-28 22:26:00,
2013-09-28 18:32:00,73.9,65.5,30.04,North,11,2.0,9.0,75,0.00,,,0.00,46.0,meteohub,2013-09-28 22:32:00,
2013-09-28 18:38:00,73.6,65.1,30.04,ENE,62,0.0,9.0,75,0.00,,,0.00,35.0,meteohub,2013-09-28 22:38:00,
2013-09-28 18:45:00,73.4,64.9,30.04,NNE,32,0.0,9.0,75,0.00,,,0.00,28.0,meteohub,2013-09-28 22:45:00,
2013-09-28 18:51:00,73.0,64.9,30.05,NNW,332,0.0,5.0,76,0.00,,,0.00,21.0,meteohub,2013-09-28 22:51:00,
2013-09-28 18:57:00,72.9,64.8,30.05,ENE,59,0.0,5.0,76,0.00,,,0.00,19.0,meteohub,2013-09-28 22:57:00,
2013-09-28 19:03:00,72.7,65.5,30.05,NE,51,0.0,5.0,78,0.00,,,0.00,11.0,meteohub,2013-09-28 23:03:00,
2013-09-28 19:09:00,72.3,65.1,30.05,NE,51,0.0,5.0,78,0.00,,,0.00,5.0,meteohub,2013-09-28 23:09:00,
2013-09-28 19:16:00,72.0,65.1,30.05,NE,51,0.0,3.0,79,0.00,,,0.00,0.0,meteohub,2013-09-28 23:16:00,
2013-09-28 19:22:00,71.6,64.8,30.05,NE,51,0.0,3.0,79,0.00,,,0.00,0.0,meteohub,2013-09-28 23:22:00,
2013-09-28 19:27:00,71.2,65.1,30.06,NE,51,0.0,3.0,81,0.00,,,0.00,0.0,meteohub,2013-09-28 23:27:00,
2013-09-28 19:32:00,70.9,64.8,30.06,NE,51,0.0,1.0,81,0.00,,,0.00,0.0,meteohub,2013-09-28 23:32:00,
2013-09-28 19:37:00,70.5,64.8,30.06,NE,51,0.0,1.0,82,0.00,,,0.00,0.0,meteohub,2013-09-28 23:37:00,
2013-09-28 19:43:00,70.2,64.8,30.06,NE,51,0.0,1.0,83,0.00,,,0.00,0.0,meteohub,2013-09-28 23:43:00,
2013-09-28 19:49:00,69.8,64.8,30.06,NE,51,0.0,2.0,84,0.00,,,0.00,0.0,meteohub,2013-09-28 23:49:00,
2013-09-28 19:56:00,69.4,64.8,30.06,NE,51,0.0,2.0,85,0.00,,,0.00,0.0,meteohub,2013-09-28 23:56:00,
2013-09-28 20:02:00,69.3,64.9,30.05,NE,51,0.0,0.0,86,0.00,,,0.00,0.0,meteohub,2013-09-29 00:02:00,
2013-09-28 20:07:00,68.7,64.4,30.05,NE,51,0.0,0.0,86,0.00,,,0.00,0.0,meteohub,2013-09-29 00:07:00,
2013-09-28 20:14:00,68.5,64.6,30.06,NE,51,0.0,0.0,87,0.00,,,0.00,0.0,meteohub,2013-09-29 00:14:00,
2013-09-28 20:20:00,68.4,64.6,30.06,NE,51,0.0,0.0,88,0.00,,,0.00,0.0,meteohub,2013-09-29 00:20:00,
2013-09-28 20:27:00,68.2,64.4,30.05,NE,51,0.0,0.0,88,0.00,,,0.00,0.0,meteohub,2013-09-29 00:27:00,
2013-09-28 20:32:00,67.8,64.4,30.06,NE,51,0.0,0.0,89,0.00,,,0.00,0.0,meteohub,2013-09-29 00:32:00,
2013-09-28 20:39:00,67.5,64.0,30.05,NE,51,0.0,0.0,89,0.00,,,0.00,0.0,meteohub,2013-09-29 00:39:00,
2013-09-28 20:45:00,67.5,64.4,30.06,NE,51,0.0,0.0,90,0.00,,,0.00,0.0,meteohub,2013-09-29 00:45:00,
2013-09-28 20:51:00,67.3,64.2,30.06,NE,51,0.0,0.0,90,0.00,,,0.00,0.0,meteohub,2013-09-29 00:51:00,
2013-09-28 20:57:00,67.1,64.0,30.06,NE,51,0.0,0.0,90,0.00,,,0.00,0.0,meteohub,2013-09-29 00:57:00,
2013-09-28 21:02:00,66.9,64.2,30.06,NE,51,0.0,0.0,91,0.00,,,0.00,0.0,meteohub,2013-09-29 01:02:00,
2013-09-28 21:07:00,66.7,64.0,30.06,NE,51,0.0,0.0,91,0.00,,,0.00,0.0,meteohub,2013-09-29 01:07:00,
2013-09-28 21:12:00,66.6,63.9,30.06,NE,51,0.0,0.0,91,0.00,,,0.00,0.0,meteohub,2013-09-29 01:12:00,
2013-09-28 21:20:00,66.4,64.0,30.06,NE,51,0.0,0.0,92,0.00,,,0.00,0.0,meteohub,2013-09-29 01:20:00,
2013-09-28 21:26:00,66.4,64.0,30.06,NE,51,0.0,0.0,92,0.00,,,0.00,0.0,meteohub,2013-09-29 01:26:00,
2013-09-28 21:32:00,66.2,63.9,30.06,NE,51,0.0,0.0,92,0.00,,,0.00,0.0,meteohub,2013-09-29 01:32:00,
2013-09-28 21:45:00,66.0,63.9,30.06,NE,51,0.0,0.0,93,0.00,,,0.00,0.0,meteohub,2013-09-29 01:45:00,
2013-09-28 21:51:00,65.8,63.7,30.06,NE,51,0.0,0.0,93,0.00,,,0.00,0.0,meteohub,2013-09-29 01:51:00,
2013-09-28 21:57:00,65.8,63.7,30.06,NE,51,0.0,0.0,93,0.00,,,0.00,0.0,meteohub,2013-09-29 01:57:00,
2013-09-28 22:02:00,65.8,63.7,30.06,NE,51,0.0,1.0,93,0.00,,,0.00,0.0,meteohub,2013-09-29 02:02:00,
2013-09-28 22:07:00,65.8,63.7,30.06,NE,51,0.0,1.0,93,0.00,,,0.00,0.0,meteohub,2013-09-29 02:07:00,
2013-09-28 22:12:00,65.8,63.7,30.06,NE,51,0.0,1.0,93,0.00,,,0.00,0.0,meteohub,2013-09-29 02:12:00,
2013-09-28 22:17:00,65.8,63.7,30.06,NE,51,0.0,1.0,93,0.00,,,0.00,0.0,meteohub,2013-09-29 02:17:00,
2013-09-28 22:22:00,65.7,63.5,30.06,NE,51,0.0,0.0,93,0.00,,,0.00,0.0,meteohub,2013-09-29 02:22:00,
2013-09-28 22:27:00,65.7,63.5,30.06,NE,51,0.0,0.0,93,0.00,,,0.00,0.0,meteohub,2013-09-29 02:27:00,
2013-09-28 22:32:00,65.5,63.7,30.05,NE,51,0.0,0.0,94,0.00,,,0.00,0.0,meteohub,2013-09-29 02:32:00,
2013-09-28 22:37:00,65.5,63.7,30.06,NE,51,0.0,0.0,94,0.00,,,0.00,0.0,meteohub,2013-09-29 02:37:00,
2013-09-28 22:42:00,65.5,63.7,30.05,NE,51,0.0,0.0,94,0.00,,,0.00,0.0,meteohub,2013-09-29 02:42:00,
2013-09-28 22:47:00,65.5,63.7,30.05,NE,51,0.0,0.0,94,0.00,,,0.00,0.0,meteohub,2013-09-29 02:47:00,
2013-09-28 22:52:00,65.5,63.7,30.05,NE,51,0.0,1.0,94,0.00,,,0.00,0.0,meteohub,2013-09-29 02:52:00,
2013-09-28 22:59:00,65.5,63.7,30.05,NE,51,0.0,1.0,94,0.00,,,0.00,0.0,meteohub,2013-09-29 02:59:00,
2013-09-28 23:06:00,65.5,63.7,30.05,NE,51,0.0,1.0,94,0.00,,,0.00,0.0,meteohub,2013-09-29 03:06:00,
2013-09-28 23:12:00,65.5,63.7,30.05,NE,51,0.0,1.0,94,0.00,,,0.00,0.0,meteohub,2013-09-29 03:12:00,
2013-09-28 23:18:00,65.1,63.3,30.05,NE,51,0.0,1.0,94,0.00,,,0.00,0.0,meteohub,2013-09-29 03:18:00,
2013-09-28 23:24:00,65.1,63.3,30.05,NE,51,0.0,0.0,94,0.00,,,0.00,0.0,meteohub,2013-09-29 03:24:00,
2013-09-28 23:31:00,65.3,63.5,30.06,NE,51,0.0,0.0,94,0.00,,,0.00,0.0,meteohub,2013-09-29 03:31:00,
2013-09-28 23:37:00,65.5,63.7,30.05,NNE,26,1.0,1.0,94,0.00,,,0.00,0.0,meteohub,2013-09-29 03:37:00,
2013-09-28 23:43:00,65.5,63.7,30.05,NNE,26,0.0,1.0,94,0.00,,,0.00,0.0,meteohub,2013-09-29 03:43:00,
2013-09-28 23:50:00,65.5,63.7,30.05,NE,39,0.0,3.0,94,0.00,,,0.00,0.0,meteohub,2013-09-29 03:50:00,
2013-09-28 23:56:00,65.5,63.3,30.05,NE,39,1.0,3.0,93,0.00,,,0.00,0.0,meteohub,2013-09-29 03:56:00,